createdAt,value
2017-06-28T00:00:02.372Z,86.62
2017-06-28T00:10:02.946Z,86.66
2017-06-28T00:20:02.195Z,86.85
2017-06-28T00:30:02.672Z,86.47
2017-06-28T00:40:02.150Z,86.33
2017-06-28T00:50:02.157Z,86.42
2017-06-28T01:00:02.641Z,86.27
2017-06-28T01:10:02.331Z,86.32
2017-06-28T01:20:03.038Z,85.96
2017-06-28T01:30:02.508Z,85.29
2017-06-28T01:40:03.024Z,85.73
2017-06-28T01:50:02.585Z,86.15
2017-06-28T02:00:02.040Z,85.01
2017-06-28T02:10:02.708Z,85.99
2017-06-28T02:20:02.935Z,86.41
2017-06-28T02:30:02.351Z,86.53
2017-06-28T02:40:02.909Z,86.56
2017-06-28T02:50:02.484Z,86.41
2017-06-28T03:00:02.932Z,86.69
2017-06-28T03:10:02.801Z,86.81
2017-06-28T03:20:02.168Z,86.98
2017-06-28T03:30:02.589Z,88.1
2017-06-28T03:40:02.112Z,88.23
2017-06-28T03:50:02.832Z,88.54
2017-06-28T04:00:02.320Z,88.56
2017-06-28T04:10:02.836Z,88.34
2017-06-28T04:20:02.661Z,87.12
2017-06-28T04:30:02.115Z,87.04
2017-06-28T04:40:02.958Z,86.32
2017-06-28T04:50:02.812Z,86.19
2017-06-28T05:00:02.331Z,85.85
2017-06-28T05:10:02.062Z,85.6
2017-06-28T05:20:02.058Z,85.21
2017-06-28T05:30:02.517Z,85.4
2017-06-28T05:40:02.994Z,84.71
2017-06-28T05:50:02.533Z,84.19
2017-06-28T06:00:02.977Z,82.93
2017-06-28T06:10:02.631Z,80.99
2017-06-28T06:20:02.719Z,81.22
2017-06-28T06:30:02.139Z,81.25
2017-06-28T06:40:02.875Z,79.59
2017-06-28T06:50:02.841Z,80.25
2017-06-28T07:00:02.300Z,79.68
2017-06-28T07:10:02.031Z,77.07
2017-06-28T07:20:02.166Z,74.99
2017-06-28T07:30:02.593Z,76.54
2017-06-28T07:40:02.274Z,75.78
2017-06-28T07:50:02.327Z,71.5
2017-06-28T08:00:02.848Z,69.5
2017-06-28T08:10:02.439Z,71.18
2017-06-28T08:20:02.772Z,73.46
2017-06-28T08:30:02.180Z,74.57
2017-06-28T08:40:02.652Z,74.43
2017-06-28T08:50:02.631Z,76.78
2017-06-28T09:00:02.209Z,76.13
2017-06-28T09:10:02.805Z,76.97
2017-06-28T09:20:02.408Z,77.46
2017-06-28T09:30:02.849Z,82.85
2017-06-28T09:40:02.441Z,84.81
2017-06-28T09:50:02.610Z,89.77
2017-06-28T10:00:02.084Z,89.84
2017-06-28T10:10:02.898Z,93.19
2017-06-28T10:20:02.618Z,93.49
2017-06-28T10:30:02.027Z,93.32
2017-06-28T10:40:02.517Z,93.68
2017-06-28T10:50:02.437Z,93.61
2017-06-28T11:00:02.867Z,95.07
2017-06-28T11:10:02.480Z,96.03
2017-06-28T11:20:02.667Z,96.21
2017-06-28T11:30:02.082Z,96.95
2017-06-28T11:40:02.549Z,98.02
2017-06-28T11:50:02.298Z,97.29
2017-06-28T12:00:02.757Z,99.05
2017-06-28T12:10:02.653Z,99.59
2017-06-28T12:20:02.085Z,100.4
2017-06-28T12:30:02.561Z,100.72
2017-06-28T12:40:03.041Z,101.49
2017-06-28T12:50:02.208Z,102.59
2017-06-28T13:00:02.699Z,102.59
2017-06-28T13:10:02.292Z,102.79
2017-06-28T13:20:02.972Z,102.84
2017-06-28T13:30:02.405Z,103.41
2017-06-28T13:40:02.834Z,102.49
2017-06-28T13:50:02.914Z,101.92
2017-06-28T14:00:02.382Z,101.56
2017-06-28T14:10:02.994Z,102.46
2017-06-28T14:20:02.660Z,102.43
2017-06-28T14:30:02.128Z,101.27
2017-06-28T14:40:02.917Z,101.07
2017-06-28T14:50:03.003Z,101.86
2017-06-28T15:00:02.457Z,102.38
2017-06-28T15:10:02.084Z,100.75
2017-06-28T15:20:02.176Z,100.81
2017-06-28T15:30:02.591Z,98.95
2017-06-28T15:40:02.335Z,96.44
2017-06-28T15:50:02.402Z,94.68
2017-06-28T16:00:02.885Z,95.04
2017-06-28T16:10:02.651Z,96.4
2017-06-28T16:20:02.150Z,95.68
2017-06-28T16:30:02.632Z,95.92
2017-06-28T17:40:02.498Z,94.34
2017-06-28T18:00:02.887Z,94.98
2017-06-28T20:20:02.333Z,99.77
